createdAt,value
2022-11-18T00:31:29.984Z,94.76
2022-11-18T00:32:31.875Z,94.59
2022-11-18T00:33:36.164Z,95.17
2022-11-18T00:34:38.159Z,95.41
2022-11-18T00:35:40.019Z,95.56
2022-11-18T00:36:45.823Z,95.10
2022-11-18T00:37:47.741Z,95.18
2022-11-18T00:38:49.608Z,94.72
2022-11-18T00:39:51.559Z,94.18
2022-11-18T00:41:06.617Z,93.87
2022-11-18T00:42:08.533Z,93.77
2022-11-18T00:43:10.698Z,93.42
2022-11-18T00:44:12.568Z,93.84
2022-11-18T00:45:14.656Z,93.75
2022-11-18T00:46:16.938Z,93.82
2022-11-18T00:47:18.789Z,94.19
2022-11-18T00:48:20.973Z,94.18
2022-11-18T00:49:22.931Z,93.94
2022-11-18T00:50:24.925Z,94.17
2022-11-18T00:51:26.797Z,94.35
2022-11-18T00:52:28.770Z,94.06
2022-11-18T00:53:30.618Z,94.03
2022-11-18T00:54:32.491Z,93.83
2022-11-18T00:55:34.376Z,93.77
2022-11-18T00:56:36.437Z,93.41
2022-11-18T00:57:38.313Z,93.06
2022-11-18T00:58:40.189Z,92.95
2022-11-18T00:59:42.039Z,92.43
2022-11-18T01:00:46.166Z,92.51
2022-11-18T01:01:48.137Z,92.71
2022-11-18T01:02:50.347Z,93.00
2022-11-18T01:03:52.623Z,92.71
2022-11-18T01:04:54.509Z,92.87
2022-11-18T01:05:57.097Z,92.79
2022-11-18T01:06:59.180Z,93.18
2022-11-18T01:08:01.541Z,92.57
2022-11-18T01:09:03.725Z,93.11
2022-11-18T01:10:06.150Z,93.78
2022-11-18T01:11:09.230Z,93.37
2022-11-18T01:12:11.733Z,92.86
2022-11-18T01:13:19.066Z,92.53
2022-11-18T01:14:26.143Z,92.00
2022-11-18T01:15:28.041Z,91.98
2022-11-18T01:16:30.014Z,91.79
2022-11-18T01:17:32.080Z,91.58
2022-11-18T01:18:33.951Z,91.60
2022-11-18T01:19:36.217Z,92.18
2022-11-18T01:20:38.880Z,92.15
2022-11-18T01:21:40.747Z,92.36
2022-11-18T01:22:42.640Z,91.83
2022-11-18T01:23:44.851Z,91.83
2022-11-18T01:24:46.769Z,91.57
2022-11-18T01:25:50.103Z,91.14
2022-11-18T01:26:52.079Z,90.61
2022-11-18T01:27:54.357Z,90.06
2022-11-18T01:28:57.396Z,89.98
2022-11-18T01:29:59.268Z,89.78
2022-11-18T01:31:07.133Z,89.58
2022-11-18T01:32:23.828Z,89.53
2022-11-18T01:33:12.830Z,89.52
2022-11-18T01:34:14.699Z,90.01
2022-11-18T01:35:16.606Z,90.46
2022-11-18T01:36:24.751Z,90.75
2022-11-18T01:37:26.689Z,90.83
2022-11-18T01:38:28.695Z,91.21
2022-11-18T01:39:30.688Z,91.45
2022-11-18T01:40:34.042Z,91.53
2022-11-18T01:41:35.925Z,91.40
2022-11-18T01:42:38.705Z,91.61
2022-11-18T01:45:13.438Z,91.54
2022-11-18T01:46:16.284Z,91.08
2022-11-18T01:47:19.072Z,91.33
2022-11-18T01:48:27.477Z,91.33
2022-11-18T01:49:29.387Z,91.35
2022-11-18T01:50:33.862Z,91.43
2022-11-18T01:51:42.385Z,91.51
2022-11-18T01:52:50.318Z,91.96
2022-11-18T01:53:59.680Z,91.61
2022-11-18T01:55:05.446Z,91.87
2022-11-18T01:56:14.726Z,91.93
2022-11-18T01:57:20.211Z,92.31
2022-11-18T01:58:28.870Z,92.38
2022-11-18T01:59:35.071Z,91.73
2022-11-18T02:00:39.000Z,91.25
2022-11-18T02:01:41.398Z,91.10
2022-11-18T02:02:44.545Z,91.09
2022-11-18T02:03:50.561Z,91.09
2022-11-18T02:04:55.893Z,91.15
2022-11-18T02:06:00.533Z,91.17
2022-11-18T02:07:04.207Z,91.17
2022-11-18T02:08:07.464Z,91.33
2022-11-18T02:09:10.120Z,91.21
2022-11-18T02:10:21.683Z,91.34
2022-11-18T02:11:23.715Z,91.74
2022-11-18T02:12:25.957Z,91.96
2022-11-18T02:13:28.303Z,92.25
2022-11-18T02:14:34.187Z,92.74
2022-11-18T02:15:52.292Z,92.48
2022-11-18T02:16:58.387Z,92.25
2022-11-18T02:18:13.622Z,91.76
2022-11-18T02:19:54.499Z,91.70
2022-11-18T02:21:17.452Z,91.45
2022-11-18T02:22:29.190Z,91.31
2022-11-18T02:23:37.877Z,91.77
2022-11-18T02:24:43.736Z,91.90
2022-11-18T02:25:58.422Z,92.08
2022-11-18T02:27:31.946Z,91.79
2022-11-18T02:29:11.577Z,91.35
2022-11-18T02:30:16.334Z,90.74
2022-11-18T02:31:28.055Z,91.23
2022-11-18T02:32:36.313Z,91.19
2022-11-18T02:33:50.481Z,91.23
2022-11-18T02:35:08.402Z,91.63
2022-11-18T02:36:20.182Z,91.90
2022-11-18T02:37:26.392Z,92.07
2022-11-18T02:38:38.751Z,92.06
2022-11-18T02:39:54.182Z,91.85
2022-11-18T02:41:00.265Z,92.26
2022-11-18T02:42:06.328Z,92.80
2022-11-18T02:43:12.531Z,92.42
2022-11-18T02:44:17.067Z,92.37
2022-11-18T02:45:22.873Z,92.43
2022-11-18T02:46:30.115Z,92.75
2022-11-18T02:47:35.388Z,92.92
2022-11-18T02:48:41.262Z,93.44
2022-11-18T02:49:50.388Z,93.52
2022-11-18T02:50:54.701Z,93.83
2022-11-18T02:51:59.215Z,93.72
2022-11-18T02:53:04.244Z,93.76
2022-11-18T02:54:10.706Z,94.69
2022-11-18T02:55:14.983Z,94.87
2022-11-18T02:56:20.979Z,95.22
2022-11-18T02:57:25.175Z,95.16
2022-11-18T02:58:27.478Z,95.18
2022-11-18T02:59:31.134Z,94.78
2022-11-18T03:00:35.400Z,94.48
2022-11-18T03:01:37.939Z,94.58
2022-11-18T03:02:46.764Z,94.59
2022-11-18T03:03:49.099Z,94.63
2022-11-18T03:04:54.932Z,94.33
2022-11-18T03:07:37.934Z,93.38
2022-11-18T03:08:47.125Z,92.96
2022-11-18T03:09:52.028Z,93.26
2022-11-18T03:11:01.774Z,92.94
2022-11-18T03:12:29.061Z,92.82
2022-11-18T03:15:03.970Z,93.23
2022-11-18T03:16:13.004Z,93.27
2022-11-18T03:17:42.556Z,93.33
2022-11-18T03:18:54.572Z,93.29
2022-11-18T03:20:30.971Z,93.23
2022-11-18T03:21:42.517Z,93.14
2022-11-18T03:23:04.546Z,93.12
2022-11-18T03:24:14.061Z,93.17
2022-11-18T03:26:35.135Z,93.94
2022-11-18T03:28:01.981Z,94.13
2022-11-18T03:29:16.992Z,94.19
2022-11-18T03:30:22.891Z,94.17
2022-11-18T03:31:29.952Z,93.76
2022-11-18T03:32:35.778Z,93.53
2022-11-18T03:33:47.922Z,94.09
2022-11-18T03:34:54.027Z,94.37
2022-11-18T03:35:58.936Z,94.21
2022-11-18T03:37:10.056Z,94.08
2022-11-18T03:38:15.138Z,93.84
2022-11-18T03:39:20.357Z,93.82
2022-11-18T03:40:26.261Z,93.90
2022-11-18T03:41:32.851Z,94.03
2022-11-18T03:42:50.628Z,93.97
2022-11-18T03:45:07.718Z,93.52
2022-11-18T03:46:13.891Z,93.42
2022-11-18T03:47:19.648Z,93.09
2022-11-18T03:48:31.428Z,92.81
2022-11-18T03:49:37.105Z,92.62
2022-11-18T03:50:49.193Z,92.37
2022-11-18T03:51:57.903Z,92.21
2022-11-18T03:53:01.606Z,91.81
2022-11-18T03:54:10.689Z,91.48
2022-11-18T03:55:16.353Z,90.89
2022-11-18T03:56:22.556Z,90.89
2022-11-18T03:57:47.750Z,90.84
2022-11-18T03:59:08.582Z,90.74
2022-11-18T04:00:13.723Z,90.72
2022-11-18T04:01:19.570Z,90.69
2022-11-18T04:02:24.884Z,90.77
2022-11-18T04:03:27.358Z,90.59
2022-11-18T04:04:29.677Z,90.40
2022-11-18T04:05:35.329Z,90.47
2022-11-18T04:06:43.778Z,90.45
2022-11-18T04:07:52.297Z,90.31
2022-11-18T04:08:57.966Z,90.08
2022-11-18T04:10:09.413Z,89.90
2022-11-18T04:11:18.789Z,89.64
2022-11-18T04:12:22.480Z,89.37
2022-11-18T04:13:33.559Z,89.42
2022-11-18T04:14:41.336Z,89.46
2022-11-18T04:15:43.830Z,89.14
2022-11-18T04:16:49.665Z,89.08
2022-11-18T04:17:53.656Z,88.84
2022-11-18T04:18:55.554Z,88.79
2022-11-18T04:19:57.446Z,88.84
2022-11-18T04:20:59.403Z,88.83
2022-11-18T04:22:01.287Z,89.00
2022-11-18T04:23:04.688Z,89.03
2022-11-18T04:24:07.592Z,88.67
2022-11-18T04:25:09.566Z,88.70
2022-11-18T04:26:11.631Z,88.60
2022-11-18T04:27:13.814Z,88.62
2022-11-18T04:28:15.664Z,88.66
2022-11-18T04:29:17.918Z,88.75
2022-11-18T04:30:20.916Z,88.69
2022-11-18T04:31:23.086Z,88.54
2022-11-18T04:32:24.978Z,88.58
2022-11-18T04:33:27.262Z,88.32
2022-11-18T04:34:29.773Z,88.26
2022-11-18T04:35:31.624Z,87.70
2022-11-18T04:36:33.895Z,87.80
2022-11-18T04:37:36.065Z,87.69
2022-11-18T04:38:37.943Z,87.74
2022-11-18T04:39:39.794Z,87.55
2022-11-18T04:40:42.409Z,87.29
2022-11-18T04:41:44.774Z,87.34
2022-11-18T04:42:46.665Z,87.32
2022-11-18T04:43:48.529Z,87.13
2022-11-18T04:44:50.381Z,87.20
2022-11-18T04:45:52.276Z,87.47
2022-11-18T04:46:56.169Z,87.13
2022-11-18T04:48:03.329Z,87.04
2022-11-18T04:49:01.841Z,86.90
2022-11-18T05:53:25.033Z,90.04
2022-11-18T05:54:30.359Z,89.80
2022-11-18T05:55:56.498Z,89.13
2022-11-18T05:56:58.678Z,89.15
2022-11-18T05:58:00.522Z,89.19
2022-11-18T05:59:03.172Z,88.14
2022-11-18T06:00:06.512Z,87.55
2022-11-18T06:01:11.250Z,87.37
2022-11-18T06:02:19.827Z,87.31
2022-11-18T06:03:30.568Z,86.89
2022-11-18T06:04:42.256Z,86.89
2022-11-18T06:05:44.883Z,86.96
2022-11-18T06:06:49.659Z,87.09
2022-11-18T06:07:56.630Z,87.32
2022-11-18T06:09:04.670Z,87.63
2022-11-18T06:10:09.182Z,87.89
2022-11-18T06:11:14.195Z,88.25
2022-11-18T06:12:20.303Z,88.18
2022-11-18T06:13:26.025Z,87.96
2022-11-18T06:14:37.810Z,87.93
2022-11-18T06:15:42.892Z,87.43
2022-11-18T06:16:51.849Z,87.02
2022-11-18T06:18:00.503Z,86.76
2022-11-18T06:19:05.245Z,86.73
2022-11-18T06:20:09.878Z,86.90
2022-11-18T06:21:12.287Z,86.99
2022-11-18T06:22:14.684Z,86.89
2022-11-18T06:23:17.048Z,86.81
2022-11-18T06:24:19.315Z,86.82
2022-11-18T06:25:22.589Z,87.05
2022-11-18T06:26:24.799Z,87.65
2022-11-18T06:27:28.522Z,88.28
2022-11-18T06:28:31.024Z,88.12
2022-11-18T06:29:32.928Z,87.61
2022-11-18T06:30:34.916Z,87.04
2022-11-18T06:31:36.778Z,86.98
2022-11-18T06:32:38.924Z,86.58
2022-11-18T06:33:40.807Z,86.31
2022-11-18T06:34:42.668Z,85.94
2022-11-18T06:35:44.847Z,85.70
2022-11-18T06:36:46.817Z,85.20
2022-11-18T06:37:48.978Z,85.15
2022-11-18T06:38:51.032Z,85.28
2022-11-18T06:39:52.908Z,85.18
2022-11-18T06:41:00.987Z,85.31
2022-11-18T06:42:03.316Z,85.24
2022-11-18T06:43:06.902Z,85.13
2022-11-18T06:44:11.421Z,85.05
2022-11-18T06:45:13.352Z,85.00
2022-11-18T06:46:17.308Z,84.92
2022-11-18T06:47:19.317Z,84.88
2022-11-18T06:48:21.199Z,84.93
2022-11-18T06:49:24.523Z,84.89
2022-11-18T06:50:27.749Z,84.65
2022-11-18T06:51:47.856Z,84.26
2022-11-18T06:52:49.816Z,83.94
2022-11-18T06:53:52.689Z,83.73
2022-11-18T06:54:54.722Z,83.53
2022-11-18T06:55:56.575Z,83.61
2022-11-18T06:56:58.598Z,83.71
2022-11-18T06:58:00.475Z,83.56
2022-11-18T06:59:02.636Z,83.64
2022-11-18T07:00:06.619Z,83.25
2022-11-18T07:01:14.421Z,82.95
2022-11-18T07:02:16.627Z,82.47
2022-11-18T07:03:18.481Z,82.48
2022-11-18T07:04:20.353Z,82.71
2022-11-18T07:05:22.311Z,82.58
2022-11-18T07:06:27.174Z,82.46
2022-11-18T07:07:29.282Z,82.58
2022-11-18T07:08:31.285Z,82.78
2022-11-18T07:09:36.881Z,82.77
2022-11-18T07:10:38.911Z,82.47
2022-11-18T07:11:41.960Z,81.85
2022-11-18T07:12:44.860Z,81.26
2022-11-18T07:13:47.216Z,80.77
2022-11-18T07:14:49.082Z,80.41
2022-11-18T07:15:51.029Z,80.52
2022-11-18T07:16:53.019Z,80.70
2022-11-18T07:17:54.999Z,80.91
2022-11-18T07:18:57.186Z,80.61
2022-11-18T07:19:59.178Z,80.56
2022-11-18T07:21:02.678Z,80.51
2022-11-18T07:22:04.677Z,80.73
2022-11-18T07:23:06.560Z,80.65
2022-11-18T07:24:14.284Z,80.50
2022-11-18T07:25:16.220Z,80.59
2022-11-18T07:26:19.841Z,80.79
2022-11-18T07:27:21.711Z,81.15
2022-11-18T07:28:24.303Z,81.22
2022-11-18T07:29:26.365Z,81.43
2022-11-18T07:30:28.403Z,81.60
2022-11-18T07:31:30.731Z,81.58
2022-11-18T07:32:32.706Z,81.83
2022-11-18T07:33:36.119Z,81.95
2022-11-18T07:34:38.041Z,81.72
2022-11-18T07:35:40.163Z,81.67
2022-11-18T07:36:42.743Z,81.40
2022-11-18T07:37:44.716Z,81.21
2022-11-18T07:38:47.571Z,81.16
2022-11-18T07:39:49.452Z,81.28
2022-11-18T07:40:51.398Z,81.50
2022-11-18T07:41:53.329Z,81.47
2022-11-18T07:42:56.056Z,81.69
2022-11-18T07:44:01.003Z,81.60
2022-11-18T07:45:03.804Z,81.63
2022-11-18T07:46:15.397Z,81.87
2022-11-18T07:47:18.198Z,81.90
2022-11-18T07:48:20.178Z,81.94
2022-11-18T07:49:22.170Z,81.70
2022-11-18T07:50:24.121Z,81.74
2022-11-18T07:52:40.014Z,81.81
2022-11-18T07:53:42.777Z,81.96
2022-11-18T07:54:44.761Z,81.87
2022-11-18T07:55:47.240Z,81.51
2022-11-18T07:56:49.517Z,81.26
2022-11-18T07:57:51.519Z,81.29
2022-11-18T07:58:55.116Z,81.71
2022-11-18T07:59:57.022Z,82.19
2022-11-18T08:01:01.078Z,82.55
2022-11-18T08:02:03.204Z,82.23
2022-11-18T08:03:05.194Z,81.65
2022-11-18T08:05:20.111Z,81.56
2022-11-18T08:06:22.520Z,81.66
2022-11-18T08:07:24.486Z,81.87
2022-11-18T08:08:27.052Z,81.84
2022-11-18T08:09:29.150Z,81.82
2022-11-18T08:10:31.315Z,81.71
2022-11-18T08:11:34.047Z,81.44
2022-11-18T08:12:36.042Z,81.21
2022-11-18T08:13:38.162Z,80.98
2022-11-18T08:14:40.135Z,81.29
2022-11-18T08:15:43.938Z,81.05
2022-11-18T08:16:46.028Z,80.19
2022-11-18T08:17:47.912Z,80.39
2022-11-18T08:18:50.928Z,80.24
2022-11-18T08:19:52.812Z,80.42
2022-11-18T08:20:54.774Z,80.53
2022-11-18T08:21:56.623Z,80.38
2022-11-18T08:22:58.516Z,80.44
2022-11-18T08:24:00.373Z,80.61
2022-11-18T08:25:02.251Z,80.44
2022-11-18T08:26:10.555Z,80.33
2022-11-18T08:27:13.518Z,80.18
2022-11-18T08:28:15.559Z,79.83
2022-11-18T08:29:21.890Z,79.89
2022-11-18T08:30:21.613Z,79.63
2022-11-18T08:31:26.547Z,79.53
2022-11-18T08:32:29.288Z,79.21
2022-11-18T08:33:31.194Z,79.10
2022-11-18T08:34:33.478Z,79.02
2022-11-18T08:35:35.391Z,78.80
2022-11-18T08:36:38.367Z,78.99
2022-11-18T08:37:40.572Z,78.86
2022-11-18T08:38:42.778Z,78.95
2022-11-18T08:39:44.752Z,79.17
2022-11-18T08:40:47.064Z,79.30
2022-11-18T08:41:49.063Z,79.50
2022-11-18T08:42:51.909Z,79.06
2022-11-18T08:43:53.959Z,78.74
2022-11-18T08:44:55.932Z,78.62
2022-11-18T08:45:57.799Z,78.54
2022-11-18T08:47:00.550Z,78.43
2022-11-18T08:48:02.707Z,78.64
2022-11-18T08:49:05.119Z,79.05
2022-11-18T08:50:10.121Z,78.84
2022-11-18T08:51:12.938Z,79.01
2022-11-18T08:52:15.014Z,79.08
2022-11-18T08:53:17.124Z,78.82
2022-11-18T08:54:19.758Z,78.49
2022-11-18T08:55:21.626Z,78.34
2022-11-18T08:56:25.041Z,78.01
2022-11-18T08:57:27.340Z,78.12
2022-11-18T08:58:30.314Z,78.33
2022-11-18T08:59:34.397Z,78.50
2022-11-18T09:00:36.424Z,78.66
2022-11-18T09:01:38.963Z,79.00
2022-11-18T09:02:44.327Z,78.80
2022-11-18T09:03:46.442Z,78.43
2022-11-18T09:04:49.723Z,78.58
2022-11-18T09:05:51.774Z,79.09
2022-11-18T09:06:53.810Z,79.41
2022-11-18T09:07:55.881Z,78.79
2022-11-18T09:09:00.788Z,79.02
2022-11-18T09:10:01.535Z,78.98
2022-11-18T09:11:12.280Z,78.50
2022-11-18T09:12:14.250Z,78.54
2022-11-18T09:13:47.524Z,78.97
2022-11-18T09:15:11.648Z,79.20
2022-11-18T09:15:24.238Z,78.93
2022-11-18T09:16:28.691Z,78.95
2022-11-18T09:17:31.726Z,79.18
2022-11-18T09:18:33.894Z,79.26
2022-11-18T09:19:51.304Z,79.29
2022-11-18T09:20:39.759Z,79.36
2022-11-18T09:21:41.623Z,79.79
2022-11-18T09:22:43.670Z,80.08
2022-11-18T09:23:45.753Z,80.14
2022-11-18T09:24:47.608Z,80.24
2022-11-18T09:27:15.182Z,79.89
2022-11-18T09:28:12.595Z,80.03
2022-11-18T09:29:14.485Z,80.14
2022-11-18T09:30:16.514Z,80.27
2022-11-18T09:31:18.642Z,80.83
2022-11-18T09:32:20.541Z,80.41
2022-11-18T09:33:23.005Z,80.41
2022-11-18T09:34:24.898Z,80.88
2022-11-18T09:35:26.782Z,81.12
2022-11-18T09:36:29.019Z,81.07
2022-11-18T09:37:32.613Z,81.19
2022-11-18T09:38:34.532Z,81.21
2022-11-18T09:39:36.826Z,81.09
2022-11-18T09:40:57.811Z,80.83
2022-11-18T09:43:48.634Z,81.59
2022-11-18T09:45:08.597Z,82.15
2022-11-18T09:46:38.473Z,82.02
2022-11-18T09:47:40.433Z,82.03
2022-11-18T09:48:42.604Z,81.78
2022-11-18T09:49:45.968Z,81.63
2022-11-18T09:50:49.995Z,81.73
2022-11-18T09:51:53.079Z,81.72
2022-11-18T09:53:01.460Z,81.93
2022-11-18T09:54:03.369Z,82.07
2022-11-18T09:55:13.571Z,82.35
2022-11-18T09:56:16.525Z,82.51
2022-11-18T09:57:38.072Z,82.32
2022-11-18T09:58:40.406Z,82.43
2022-11-18T09:59:43.301Z,81.99
2022-11-18T10:00:45.285Z,81.94
2022-11-18T10:01:50.284Z,81.88
2022-11-18T10:03:08.327Z,81.48
2022-11-18T10:04:16.233Z,81.72
2022-11-18T10:05:24.600Z,81.99
2022-11-18T10:06:30.238Z,82.82
2022-11-18T16:14:30.520Z,95.26
2022-11-18T16:16:44.081Z,95.15
2022-11-18T16:17:46.002Z,95.12
2022-11-18T16:18:47.880Z,95.12
2022-11-18T16:19:49.765Z,95.27
2022-11-18T16:20:55.479Z,95.19
2022-11-18T16:21:57.437Z,95.18
2022-11-18T16:22:59.367Z,95.06
2022-11-18T16:24:05.048Z,95.19
2022-11-18T16:25:09.936Z,95.21
2022-11-18T16:26:12.081Z,95.38
2022-11-18T16:27:13.944Z,95.21
2022-11-18T16:28:16.001Z,95.32
2022-11-18T16:29:18.750Z,95.43
2022-11-18T16:30:22.315Z,95.53
2022-11-18T16:31:24.904Z,95.58
2022-11-18T16:32:26.783Z,95.72
2022-11-18T16:33:28.664Z,95.74
2022-11-18T16:34:30.544Z,95.71
2022-11-18T16:35:32.442Z,95.67
2022-11-18T16:36:35.703Z,95.46
2022-11-18T16:37:37.585Z,95.55
2022-11-18T16:38:39.448Z,95.62
2022-11-18T16:39:41.628Z,95.63
2022-11-18T16:40:43.767Z,95.60
2022-11-18T16:41:45.935Z,95.76
2022-11-18T16:42:52.709Z,95.75
2022-11-18T16:43:54.609Z,95.74
2022-11-18T16:44:56.516Z,95.80
2022-11-18T16:45:58.379Z,95.98
2022-11-18T16:47:00.342Z,96.18
2022-11-18T16:48:02.860Z,96.15
2022-11-18T16:49:05.324Z,96.06
2022-11-18T16:50:09.610Z,96.22
2022-11-18T16:51:19.931Z,96.29
2022-11-18T16:52:22.246Z,96.64
2022-11-18T16:53:24.123Z,96.62
2022-11-18T16:54:28.583Z,96.56
2022-11-18T16:55:30.520Z,96.55
2022-11-18T16:56:34.808Z,96.70
2022-11-18T16:57:36.831Z,96.76
2022-11-18T16:58:38.697Z,96.78
2022-11-18T16:59:40.581Z,96.89
2022-11-18T17:01:15.941Z,97.18
2022-11-18T17:01:48.882Z,97.33
2022-11-18T17:02:50.957Z,97.52
2022-11-18T17:03:54.127Z,97.60
2022-11-18T17:04:56.013Z,97.52
2022-11-18T17:06:00.297Z,97.58
2022-11-18T17:07:03.083Z,97.52
2022-11-18T17:08:05.051Z,97.14
2022-11-18T17:09:09.331Z,97.16
2022-11-18T17:10:11.338Z,97.39
2022-11-18T17:11:13.203Z,97.41
2022-11-18T17:12:15.085Z,97.59
2022-11-18T17:13:17.177Z,97.59
2022-11-18T17:14:19.199Z,97.64
2022-11-18T17:15:21.231Z,97.76
2022-11-18T17:16:23.685Z,97.69
2022-11-18T17:17:25.695Z,97.82
2022-11-18T17:18:27.561Z,97.95
2022-11-18T17:19:29.422Z,98.04
2022-11-18T17:20:33.273Z,98.14
2022-11-18T17:21:35.217Z,97.98
2022-11-18T17:22:38.103Z,97.77
2022-11-18T17:23:40.681Z,97.73
2022-11-18T17:24:42.679Z,97.87
2022-11-18T17:25:44.534Z,97.96
2022-11-18T17:26:47.139Z,98.05
2022-11-18T17:27:49.927Z,98.24
2022-11-18T17:28:52.415Z,98.62
2022-11-18T17:29:54.294Z,98.88
2022-11-18T17:30:57.967Z,99.01
2022-11-18T17:32:00.101Z,98.69
2022-11-18T17:33:02.065Z,98.66
2022-11-18T17:34:04.544Z,98.82
2022-11-18T17:35:08.194Z,98.94
2022-11-18T17:36:13.105Z,98.94
2022-11-18T17:37:16.165Z,99.16
2022-11-18T17:38:18.088Z,99.38
2022-11-18T17:39:20.075Z,99.55
2022-11-18T17:40:22.334Z,99.87
2022-11-18T17:41:27.395Z,100.00
2022-11-18T17:42:29.305Z,100.00
2022-11-18T17:43:31.548Z,100.00
2022-11-18T17:44:33.434Z,100.00
2022-11-18T17:45:39.091Z,100.00
2022-11-18T17:46:41.790Z,100.00
2022-11-18T17:47:43.783Z,100.00
2022-11-18T17:48:45.672Z,100.00
2022-11-18T17:49:47.548Z,100.00
2022-11-18T22:15:21.350Z,100.00
2022-11-18T22:17:34.386Z,100.00
2022-11-18T22:18:41.801Z,100.00
2022-11-18T22:19:43.827Z,100.00
2022-11-18T22:20:45.804Z,100.00
2022-11-18T22:21:47.692Z,100.00
2022-11-18T22:22:49.650Z,100.00
2022-11-18T22:23:51.601Z,100.00
2022-11-18T22:24:53.466Z,100.00
2022-11-18T22:25:59.167Z,100.00
2022-11-18T22:27:01.288Z,100.00
2022-11-18T22:28:03.429Z,100.00
2022-11-18T22:29:05.630Z,100.00
2022-11-18T22:30:09.316Z,100.00
2022-11-18T22:31:13.744Z,100.00
2022-11-18T22:32:15.681Z,100.00
2022-11-18T22:33:17.564Z,100.00
2022-11-18T22:34:21.730Z,100.00
2022-11-18T22:35:23.644Z,100.00
2022-11-18T22:36:27.594Z,100.00
2022-11-18T22:37:29.687Z,100.00
2022-11-18T22:38:33.235Z,100.00
2022-11-18T22:39:35.180Z,100.00
2022-11-18T22:40:37.276Z,100.00
2022-11-18T22:41:39.143Z,100.00
2022-11-18T22:42:41.044Z,100.00
2022-11-18T22:43:42.907Z,100.00
2022-11-18T22:44:44.874Z,100.00
2022-11-18T22:45:46.743Z,100.00
2022-11-18T22:46:48.764Z,100.00
2022-11-18T22:47:50.627Z,100.00
2022-11-18T22:48:52.813Z,100.00
2022-11-18T22:49:56.560Z,100.00
2022-11-18T22:51:04.039Z,100.00
2022-11-18T22:52:06.396Z,100.00
2022-11-18T22:53:08.309Z,100.00
2022-11-18T22:54:37.052Z,100.00
2022-11-18T22:55:14.139Z,100.00
2022-11-18T22:56:18.858Z,100.00
2022-11-18T22:57:20.776Z,100.00
2022-11-18T22:58:24.462Z,100.00
2022-11-18T22:59:26.387Z,100.00
2022-11-18T23:00:28.341Z,100.00
2022-11-18T23:01:30.244Z,100.00
2022-11-18T23:02:32.420Z,100.00
2022-11-18T23:03:34.952Z,100.00
2022-11-18T23:04:36.865Z,100.00
2022-11-18T23:05:38.731Z,100.00
2022-11-18T23:06:40.718Z,100.00
2022-11-18T23:07:42.794Z,100.00
2022-11-18T23:08:45.111Z,100.00
2022-11-18T23:09:47.019Z,100.00
2022-11-18T23:10:49.539Z,100.00
2022-11-18T23:11:51.746Z,100.00
2022-11-18T23:12:53.623Z,100.00
2022-11-18T23:13:55.793Z,100.00
2022-11-18T23:14:57.669Z,100.00
2022-11-18T23:16:00.213Z,100.00
2022-11-18T23:17:04.212Z,100.00
2022-11-18T23:18:11.192Z,100.00
2022-11-18T23:19:15.868Z,100.00
2022-11-18T23:20:18.195Z,100.00
2022-11-18T23:21:20.136Z,100.00
2022-11-18T23:22:22.117Z,100.00
2022-11-18T23:23:24.009Z,100.00
2022-11-18T23:24:25.869Z,100.00
2022-11-18T23:25:27.832Z,100.00
2022-11-18T23:26:30.827Z,100.00
2022-11-18T23:27:32.693Z,100.00
2022-11-18T23:28:35.929Z,100.00
2022-11-18T23:29:37.863Z,100.00
2022-11-18T23:30:39.938Z,100.00
2022-11-18T23:31:43.710Z,100.00
2022-11-18T23:32:45.753Z,100.00
2022-11-18T23:33:48.460Z,100.00
2022-11-18T23:34:50.400Z,100.00
2022-11-18T23:35:52.230Z,100.00
2022-11-18T23:36:54.241Z,100.00
2022-11-18T23:37:56.102Z,100.00
2022-11-18T23:38:57.982Z,100.00
2022-11-18T23:39:59.853Z,100.00
2022-11-18T23:41:04.236Z,100.00
2022-11-18T23:42:06.155Z,100.00
2022-11-18T23:43:08.014Z,100.00
2022-11-18T23:44:09.872Z,100.00
2022-11-18T23:45:11.718Z,100.00
2022-11-18T23:46:16.812Z,100.00
2022-11-18T23:47:18.890Z,100.00
2022-11-18T23:48:21.542Z,100.00
2022-11-18T23:49:23.403Z,100.00
2022-11-18T23:50:25.384Z,100.00
2022-11-18T23:51:27.396Z,100.00
2022-11-18T23:52:29.230Z,100.00
2022-11-18T23:53:33.697Z,100.00
2022-11-18T23:54:35.591Z,100.00
2022-11-18T23:55:37.948Z,100.00
2022-11-18T23:56:39.930Z,100.00
2022-11-18T23:57:41.893Z,100.00
2022-11-18T23:58:46.044Z,100.00
2022-11-18T23:59:47.948Z,100.00
